Time;durP1;ratioP1;P1;durP2;ratioP2;P2;SDS_P1;SDS_P2;PMS_P1;PMS_P2;Temp;Humidity;BMP_temperature;BMP_pressure;BME280_temperature;BME280_humidity;BME280_pressure;Samples;Min_cycle;Max_cycle;Signal;HPM_P1;HPM_P2
2021/04/22 00:01:10;;;;;;;12.17;2.63;;;;;;;4.43;58.69;101353.58;115787;1209;63258;-76
2021/04/22 00:03:37;;;;;;;12.53;2.87;;;;;;;4.43;58.33;101336.02;115802;1209;62922;-76
2021/04/22 00:06:04;;;;;;;5.13;2.20;;;;;;;4.44;58.68;101335.09;115731;1209;62380;-76
2021/04/22 00:08:30;;;;;;;7.57;2.93;;;;;;;4.44;58.17;101335.09;115737;1209;62332;-76
2021/04/22 00:10:57;;;;;;;8.80;2.30;;;;;;;4.44;58.64;101332.45;115793;1209;62441;-75
2021/04/22 00:13:27;;;;;;;11.33;3.00;;;;;;;4.43;58.63;101328.14;115835;1209;62490;-76
2021/04/22 00:16:00;;;;;;;6.98;2.08;;;;;;;4.40;58.77;101336.27;115820;1209;64862;-76
2021/04/22 00:18:27;;;;;;;12.43;3.07;;;;;;;4.37;58.88;101328.61;115783;1209;63056;-76
2021/04/22 00:20:54;;;;;;;14.70;3.00;;;;;;;4.35;58.45;101346.28;115799;1209;62335;-75
2021/04/22 00:23:21;;;;;;;15.97;2.80;;;;;;;4.31;59.41;101342.22;115793;1209;62631;-75
2021/04/22 00:25:47;;;;;;;11.73;2.97;;;;;;;4.28;59.15;101345.09;115793;1209;62137;-76
2021/04/22 00:28:15;;;;;;;11.70;3.13;;;;;;;4.26;59.03;101344.38;115771;1209;63007;-75
2021/04/22 00:30:46;;;;;;;15.37;2.37;;;;;;;4.19;59.25;101349.27;115735;1209;62347;-76
2021/04/22 00:33:16;;;;;;;9.40;2.73;;;;;;;4.16;59.23;101338.15;115781;1209;62304;-76
2021/04/22 00:35:43;;;;;;;12.33;2.57;;;;;;;4.12;59.80;101342.79;115751;1209;62729;-75
2021/04/22 00:38:13;;;;;;;22.27;4.20;;;;;;;4.06;59.21;101351.98;115781;1209;62873;-75
2021/04/22 00:40:41;;;;;;;9.43;1.90;;;;;;;4.04;59.96;101332.89;115747;1209;63602;-76
2021/04/22 00:43:11;;;;;;;6.17;1.93;;;;;;;3.97;60.07;101342.16;115805;1209;62470;-76
2021/04/22 00:45:41;;;;;;;9.63;2.93;;;;;;;3.95;59.59;101344.06;115827;1209;62444;-76
2021/04/22 00:48:13;;;;;;;10.80;3.30;;;;;;;3.93;60.45;101356.50;115800;1209;63157;-76
2021/04/22 00:50:42;;;;;;;14.90;2.70;;;;;;;3.84;59.77;101342.25;115803;1209;63937;-75
2021/04/22 00:53:09;;;;;;;14.63;2.87;;;;;;;3.92;60.11;101344.31;115775;1209;63320;-75
2021/04/22 00:55:37;;;;;;;12.83;3.20;;;;;;;3.94;60.07;101345.03;115817;1209;62487;-76
2021/04/22 00:58:05;;;;;;;4.87;1.60;;;;;;;3.95;60.26;101344.06;115794;1209;62292;-75
2021/04/22 01:00:39;;;;;;;12.25;2.50;;;;;;;3.97;60.62;101354.46;115790;1207;62640;-76
2021/04/22 01:03:07;;;;;;;10.33;2.90;;;;;;;3.98;60.94;101351.73;115806;1209;62603;-76
2021/04/22 01:05:38;;;;;;;9.60;1.77;;;;;;;3.98;60.67;101353.52;115814;1208;62411;-76
2021/04/22 01:08:05;;;;;;;8.30;1.90;;;;;;;3.98;60.92;101354.36;115766;1209;62414;-76
2021/04/22 01:10:32;;;;;;;17.60;3.20;;;;;;;3.97;61.13;101352.67;115792;1209;62693;-75
2021/04/22 01:12:58;;;;;;;14.45;3.15;;;;;;;3.99;61.17;101356.02;115787;1209;63603;-75
2021/04/22 01:15:27;;;;;;;9.63;2.17;;;;;;;3.99;61.63;101360.44;115765;1209;62407;-76
2021/04/22 01:17:56;;;;;;;10.13;2.50;;;;;;;3.95;62.57;101357.20;115759;1208;63642;-76
2021/04/22 01:20:29;;;;;;;10.33;2.40;;;;;;;3.94;63.32;101357.33;115783;1207;62295;-76
2021/04/22 01:22:59;;;;;;;6.85;1.95;;;;;;;3.87;63.70;101356.96;115733;1209;62357;-76
2021/04/22 01:25:31;;;;;;;9.30;2.53;;;;;;;3.80;63.35;101353.10;115781;1209;62791;-76
2021/04/22 01:27:59;;;;;;;8.90;2.43;;;;;;;3.75;63.66;101350.83;115807;1209;62689;-76
2021/04/22 01:30:27;;;;;;;11.77;1.83;;;;;;;3.70;63.86;101359.98;115860;1209;62413;-76
2021/04/22 01:32:54;;;;;;;7.80;1.95;;;;;;;3.64;64.54;101353.42;115771;1208;63953;-75
2021/04/22 01:35:25;;;;;;;17.40;2.80;;;;;;;3.60;64.80;101349.34;115817;1209;62353;-76
2021/04/22 01:37:52;;;;;;;6.90;2.60;;;;;;;3.59;64.21;101356.39;115824;1209;62323;-76
2021/04/22 01:40:20;;;;;;;5.53;2.20;;;;;;;3.62;64.70;101348.28;115788;1209;62390;-76
2021/04/22 01:42:46;;;;;;;6.85;1.75;;;;;;;3.66;64.62;101354.14;115784;1209;62440;-75
2021/04/22 01:45:14;;;;;;;12.20;3.10;;;;;;;3.67;64.96;101351.38;115800;1208;63987;-75
2021/04/22 01:47:41;;;;;;;15.83;3.67;;;;;;;3.69;65.77;101361.78;115757;1209;63220;-75
2021/04/22 01:50:12;;;;;;;13.37;3.80;;;;;;;3.70;65.73;101358.22;115793;1209;62858;-75
2021/04/22 01:52:52;;;;;;;8.07;2.93;;;;;;;3.73;65.88;101357.14;115727;1209;62152;-76
2021/04/22 01:55:26;;;;;;;8.80;2.97;;;;;;;3.73;66.16;101363.23;115809;1208;62468;-76
2021/04/22 01:57:53;;;;;;;8.05;3.05;;;;;;;3.75;66.13;101368.37;115798;1209;62911;-76
2021/04/22 02:00:27;;;;;;;11.30;2.80;;;;;;;3.78;65.90;101368.13;115817;1209;62335;-76
2021/04/22 02:02:54;;;;;;;11.47;2.10;;;;;;;3.84;66.26;101359.80;115768;1209;62714;-76
2021/04/22 02:05:21;;;;;;;9.27;3.00;;;;;;;3.88;65.39;101356.83;115766;1209;62768;-76
2021/04/22 02:07:52;;;;;;;6.85;1.70;;;;;;;3.89;66.02;101365.56;115817;1209;62980;-75
2021/04/22 02:10:19;;;;;;;10.77;2.60;;;;;;;3.90;65.11;101356.72;115737;1209;62933;-76
2021/04/22 02:12:46;;;;;;;10.77;2.43;;;;;;;3.92;65.56;101373.19;115812;1209;62246;-75
2021/04/22 02:15:19;;;;;;;17.20;3.35;;;;;;;3.92;64.73;101356.61;115983;1209;62304;-75
2021/04/22 02:17:46;;;;;;;6.13;2.13;;;;;;;3.91;65.39;101362.80;115837;1209;62476;-76
2021/04/22 02:20:14;;;;;;;4.20;1.63;;;;;;;3.92;65.25;101364.48;115833;1208;62307;-75
2021/04/22 02:22:41;;;;;;;10.13;2.17;;;;;;;3.93;65.12;101368.77;115764;1209;62406;-76
2021/04/22 02:25:10;;;;;;;5.80;2.55;;;;;;;3.94;64.98;101363.41;115743;1209;62373;-75
2021/04/22 02:27:38;;;;;;;9.70;2.10;;;;;;;3.98;64.41;101364.86;115752;1209;62425;-76
2021/04/22 02:30:29;;;;;;;9.53;1.93;;;;;;;4.02;64.20;101360.22;115723;1209;62767;-75
2021/04/22 02:32:57;;;;;;;13.77;2.13;;;;;;;4.05;64.07;101371.30;115756;1209;62552;-75
2021/04/22 02:35:29;;;;;;;11.45;2.50;;;;;;;4.07;64.90;101368.57;115771;1209;62501;-75
2021/04/22 02:37:57;;;;;;;13.90;2.93;;;;;;;4.07;64.67;101374.66;115816;1208;62354;-75
2021/04/22 02:40:28;;;;;;;13.00;2.70;;;;;;;4.10;64.48;101373.58;115804;1209;62255;-76
2021/04/22 02:42:57;;;;;;;8.30;2.80;;;;;;;4.09;63.96;101377.17;115812;1209;62520;-76
2021/04/22 02:45:35;;;;;;;10.67;2.50;;;;;;;4.07;63.93;101385.16;115722;1208;63021;-76
2021/04/22 02:48:03;;;;;;;13.90;2.70;;;;;;;4.08;64.64;101384.22;115779;1209;63446;-76
2021/04/22 02:50:32;;;;;;;10.07;2.40;;;;;;;4.06;64.14;101386.13;115801;1209;62396;-76
2021/04/22 02:52:59;;;;;;;18.60;4.63;;;;;;;4.09;64.48;101387.67;115806;1209;62495;-76
2021/04/22 02:55:25;;;;;;;14.63;2.30;;;;;;;4.09;64.50;101392.92;115774;1209;62332;-76
2021/04/22 02:58:13;;;;;;;12.73;2.50;;;;;;;4.12;64.25;101387.42;115768;1209;63452;-75
2021/04/22 03:00:41;;;;;;;13.50;2.40;;;;;;;4.12;64.80;101376.92;115718;1209;62524;-74
2021/04/22 03:03:07;;;;;;;7.63;2.27;;;;;;;4.13;64.66;101378.61;115812;1209;62168;-76
2021/04/22 03:05:34;;;;;;;5.15;1.45;;;;;;;4.11;64.87;101375.27;115772;1209;62574;-76
2021/04/22 03:08:01;;;;;;;5.50;1.40;;;;;;;4.11;65.28;101382.31;115706;1209;62547;-76
2021/04/22 03:10:28;;;;;;;16.43;2.97;;;;;;;4.09;65.09;101383.25;115769;1207;62863;-77
2021/04/22 03:12:55;;;;;;;10.13;2.33;;;;;;;4.09;64.92;101375.38;115784;1209;62420;-77
2021/04/22 03:15:23;;;;;;;8.53;2.17;;;;;;;4.08;64.52;101380.77;115705;1209;62781;-77
2021/04/22 03:17:51;;;;;;;11.90;1.80;;;;;;;4.05;64.78;101379.19;115812;1209;62866;-76
2021/04/22 03:20:20;;;;;;;5.60;1.93;;;;;;;4.07;64.96;101377.28;115809;1209;62712;-77
2021/04/22 03:22:49;;;;;;;6.77;1.43;;;;;;;4.08;64.53;101376.34;115756;1209;64097;-78
2021/04/22 03:25:18;;;;;;;9.85;1.70;;;;;;;4.08;64.29;101381.59;115792;1209;62929;-80
2021/04/22 03:27:45;;;;;;;7.95;2.20;;;;;;;4.12;64.70;101376.09;115814;1209;62882;-77
2021/04/22 03:30:15;;;;;;;9.80;1.93;;;;;;;4.12;64.85;101383.97;115715;1209;62976;-77
2021/04/22 03:32:42;;;;;;;10.03;2.53;;;;;;;4.11;65.07;101374.44;115864;1209;62643;-77
2021/04/22 03:35:11;;;;;;;9.83;1.93;;;;;;;4.10;65.41;101376.20;115755;1209;63615;-77
2021/04/22 03:37:39;;;;;;;10.07;2.50;;;;;;;4.11;64.85;101384.94;115807;1209;62413;-77
2021/04/22 03:40:08;;;;;;;6.43;1.73;;;;;;;4.11;64.58;101382.31;115821;1209;62364;-76
2021/04/22 03:42:35;;;;;;;5.95;1.75;;;;;;;4.11;64.51;101384.94;115462;1209;63436;-76
2021/04/22 03:45:04;;;;;;;11.43;2.33;;;;;;;4.12;64.43;101390.05;115408;1209;64304;-76
2021/04/22 03:47:30;;;;;;;10.73;2.30;;;;;;;4.13;64.46;101390.91;115467;1209;63414;-76
2021/04/22 03:49:57;;;;;;;11.70;2.70;;;;;;;4.16;62.39;101388.05;115492;1209;63060;-76
2021/04/22 03:52:24;;;;;;;8.77;1.87;;;;;;;4.19;63.71;101390.45;115452;1209;63046;-77
2021/04/22 03:54:52;;;;;;;7.07;2.07;;;;;;;4.21;63.12;101384.13;115509;1209;62853;-76
2021/04/22 03:57:19;;;;;;;10.90;2.43;;;;;;;4.21;63.35;101375.42;115567;1209;64387;-75
2021/04/22 03:59:46;;;;;;;17.17;2.33;;;;;;;4.21;64.24;101388.55;115898;1209;62910;-76
2021/04/22 04:02:12;;;;;;;12.80;2.50;;;;;;;4.20;64.08;101392.94;115520;1209;62247;-77
2021/04/22 04:05:03;;;;;;;7.87;1.93;;;;;;;4.20;63.92;101386.86;114554;1209;64432;-75
2021/04/22 04:07:29;;;;;;;8.63;2.43;;;;;;;4.19;63.63;101387.83;115787;1209;62935;-76
2021/04/22 04:09:56;;;;;;;5.53;1.97;;;;;;;4.19;63.26;101380.78;115857;1209;62314;-77
2021/04/22 04:12:27;;;;;;;13.65;2.00;;;;;;;4.22;62.66;101392.83;115784;1209;63152;-77
2021/04/22 04:14:54;;;;;;;5.10;1.60;;;;;;;4.22;63.18;101393.66;115814;1209;62719;-76
2021/04/22 04:17:22;;;;;;;11.00;2.53;;;;;;;4.23;62.89;101383.98;115787;1209;62244;-77
2021/04/22 04:19:49;;;;;;;3.50;1.05;;;;;;;4.23;63.64;101381.36;115833;1209;62458;-77
2021/04/22 04:22:16;;;;;;;7.63;1.83;;;;;;;4.23;63.46;101384.84;115865;1209;62226;-76
2021/04/22 04:24:43;;;;;;;4.87;2.20;;;;;;;4.23;62.99;101374.34;115795;1209;63010;-76
2021/04/22 04:27:10;;;;;;;6.20;1.97;;;;;;;4.21;62.53;101388.55;115747;1209;62922;-74
2021/04/22 04:29:36;;;;;;;9.50;2.20;;;;;;;4.22;62.13;101380.53;115873;1209;62486;-74
2021/04/22 04:32:03;;;;;;;15.53;2.40;;;;;;;4.25;62.46;101387.33;115810;1209;63287;-74
2021/04/22 04:34:30;;;;;;;14.03;2.20;;;;;;;4.25;62.02;101392.59;115869;1209;62161;-75
2021/04/22 04:36:57;;;;;;;12.90;2.47;;;;;;;4.26;62.48;101387.23;115754;1209;62359;-75
2021/04/22 04:39:23;;;;;;;8.30;2.50;;;;;;;4.27;62.38;101396.80;115822;1209;62364;-76
2021/04/22 04:41:50;;;;;;;6.77;1.47;;;;;;;4.28;62.95;101392.37;115844;1209;62478;-75
2021/04/22 04:44:18;;;;;;;17.97;3.70;;;;;;;4.30;62.38;101395.72;115745;1209;63147;-76
2021/04/22 04:46:44;;;;;;;14.30;2.50;;;;;;;4.32;62.59;101401.69;115788;1209;62856;-76
2021/04/22 04:49:11;;;;;;;16.07;3.73;;;;;;;4.32;62.97;101400.86;115888;1209;62831;-76
2021/04/22 04:51:37;;;;;;;6.70;1.90;;;;;;;4.34;62.36;101409.46;115868;1209;62568;-76
2021/04/22 04:54:05;;;;;;;5.40;2.20;;;;;;;4.35;63.19;101409.32;115789;1209;62240;-76
2021/04/22 04:56:31;;;;;;;12.50;2.20;;;;;;;4.36;62.50;101405.76;115843;1209;62402;-76
2021/04/22 04:59:05;;;;;;;16.80;2.23;;;;;;;4.39;62.49;101418.64;115619;1209;62144;-76
2021/04/22 05:01:36;;;;;;;7.27;1.30;;;;;;;4.42;63.28;101428.08;114885;1209;64343;-75
2021/04/22 05:07:10;;;;;;;9.37;1.73;;;;;;;4.48;62.58;101430.24;114500;1209;64244;-78
2021/04/22 05:09:44;;;;;;;10.33;2.57;;;;;;;4.51;62.42;101430.02;115545;1209;62475;-75
2021/04/22 05:12:11;;;;;;;13.03;1.80;;;;;;;4.54;62.47;101434.20;115741;1209;62014;-75
2021/04/22 05:14:37;;;;;;;21.13;2.30;;;;;;;4.56;62.14;101419.98;115758;1209;62243;-76
2021/04/22 05:17:04;;;;;;;9.67;1.93;;;;;;;4.60;62.01;101429.30;115752;1209;62228;-75
2021/04/22 05:19:35;;;;;;;12.47;2.37;;;;;;;4.62;61.24;101437.08;115721;1209;62698;-76
2021/04/22 05:22:02;;;;;;;15.03;2.57;;;;;;;4.67;61.69;101430.50;115752;1209;62378;-74
2021/04/22 05:24:28;;;;;;;18.63;1.70;;;;;;;4.71;61.71;101431.11;115622;1209;64355;-78
2021/04/22 05:26:55;;;;;;;12.33;2.37;;;;;;;4.75;61.44;101437.80;115739;1209;62996;-77
2021/04/22 05:29:21;;;;;;;7.50;1.60;;;;;;;4.81;61.25;101441.75;115751;1209;62922;-77
2021/04/22 05:31:48;;;;;;;9.10;1.90;;;;;;;4.84;61.18;101447.59;115852;1209;62310;-77
2021/04/22 05:34:15;;;;;;;14.47;2.43;;;;;;;4.90;59.85;101447.12;115760;1209;62527;-77
2021/04/22 05:36:42;;;;;;;13.07;1.90;;;;;;;4.95;59.98;101453.81;115828;1209;62708;-77
2021/04/22 05:39:09;;;;;;;5.50;1.80;;;;;;;4.99;60.64;101444.73;115774;1209;62158;-77
2021/04/22 05:41:37;;;;;;;10.60;2.30;;;;;;;5.07;60.44;101463.38;115795;1209;62215;-77
2021/04/22 05:44:04;;;;;;;9.23;1.70;;;;;;;5.11;60.13;101438.52;115730;1210;62467;-78
2021/04/22 05:46:31;;;;;;;9.70;2.80;;;;;;;5.16;60.42;101448.66;115473;1209;64010;-77
2021/04/22 05:49:01;;;;;;;4.77;1.20;;;;;;;5.15;59.47;101453.09;115744;1209;62577;-77
2021/04/22 05:51:27;;;;;;;13.50;2.40;;;;;;;5.21;60.05;101464.94;115801;1209;63610;-78
2021/04/22 05:53:54;;;;;;;5.80;1.85;;;;;;;5.21;60.13;101457.88;115844;1209;62789;-78
2021/04/22 05:56:20;;;;;;;7.80;1.85;;;;;;;5.23;60.08;101455.96;115845;1209;62355;-77
2021/04/22 05:58:47;;;;;;;10.20;1.73;;;;;;;5.23;60.17;101447.24;115774;1209;62551;-76
2021/04/22 06:01:14;;;;;;;7.93;1.77;;;;;;;5.24;60.24;101465.52;115803;1209;63026;-77
2021/04/22 06:03:41;;;;;;;7.05;2.05;;;;;;;5.30;60.45;101457.14;115793;1209;62368;-78
2021/04/22 06:06:08;;;;;;;5.60;1.45;;;;;;;5.35;60.23;101455.94;115863;1209;62208;-77
2021/04/22 06:08:34;;;;;;;10.80;2.20;;;;;;;5.37;59.33;101482.97;115897;1209;62507;-75
2021/04/22 06:11:01;;;;;;;10.45;2.05;;;;;;;5.42;59.43;101452.70;115855;1209;63092;-75
2021/04/22 06:13:27;;;;;;;6.47;1.40;;;;;;;5.53;59.98;101458.91;115833;1209;61913;-75
2021/04/22 06:15:54;;;;;;;7.73;2.77;;;;;;;5.69;59.82;101459.33;115806;1209;62490;-75
2021/04/22 06:18:20;;;;;;;10.47;2.70;;;;;;;5.78;58.82;101486.70;115854;1209;62103;-78
2021/04/22 06:20:47;;;;;;;5.73;1.67;;;;;;;5.83;58.59;101459.05;115842;1209;62382;-79
2021/04/22 06:23:25;;;;;;;10.03;2.53;;;;;;;5.91;58.25;101456.63;115860;1209;62804;-78
2021/04/22 06:25:55;;;;;;;7.40;1.77;;;;;;;5.93;57.35;101481.04;115811;1209;62172;-78
2021/04/22 06:28:22;;;;;;;14.85;2.25;;;;;;;5.97;57.93;101468.50;115836;1209;62877;-79
2021/04/22 06:30:49;;;;;;;10.87;2.17;;;;;;;6.01;57.60;101455.89;115845;1209;62567;-78
2021/04/22 06:33:16;;;;;;;12.17;2.17;;;;;;;6.01;58.61;101480.42;115862;1209;62451;-79
2021/04/22 06:35:43;;;;;;;9.55;2.50;;;;;;;6.05;58.49;101468.67;115802;1208;62593;-79
2021/04/22 06:38:10;;;;;;;16.73;2.47;;;;;;;6.07;58.03;101500.17;115832;1209;61822;-79
2021/04/22 06:40:37;;;;;;;8.25;2.05;;;;;;;6.15;58.51;101497.75;115844;1209;62155;-76
2021/04/22 06:43:10;;;;;;;12.10;1.90;;;;;;;6.16;57.73;101469.59;115972;1209;62243;-76
2021/04/22 06:45:37;;;;;;;12.80;1.87;;;;;;;6.23;58.69;101478.68;115909;1209;62355;-76
2021/04/22 06:48:06;;;;;;;8.67;2.07;;;;;;;6.22;57.80;101492.80;115845;1209;64039;-75
2021/04/22 06:50:33;;;;;;;12.00;2.40;;;;;;;6.17;57.43;101485.28;115792;1209;62649;-75
2021/04/22 06:52:59;;;;;;;5.93;1.70;;;;;;;6.06;57.97;101480.91;115752;1209;62383;-75
2021/04/22 06:55:27;;;;;;;5.63;1.47;;;;;;;6.10;58.83;101487.59;115804;1209;62369;-75
2021/04/22 06:58:02;;;;;;;5.30;1.95;;;;;;;6.16;59.02;101498.57;115952;1209;62189;-76
2021/04/22 07:00:32;;;;;;;7.63;1.67;;;;;;;6.22;58.08;101511.24;115821;1209;62392;-75
2021/04/22 07:02:59;;;;;;;7.47;1.60;;;;;;;6.17;57.96;101482.64;116017;1209;62186;-76
2021/04/22 07:05:26;;;;;;;11.80;2.77;;;;;;;6.24;58.15;101493.52;115869;1209;62730;-76
2021/04/22 07:07:52;;;;;;;13.15;2.60;;;;;;;6.26;58.22;101492.41;115839;1209;62124;-75
2021/04/22 07:10:19;;;;;;;12.70;2.30;;;;;;;6.39;57.93;101489.59;115804;1209;62590;-76
2021/04/22 07:12:46;;;;;;;6.00;1.63;;;;;;;6.59;57.68;101492.35;115897;1209;62173;-76
2021/04/22 07:15:14;;;;;;;5.67;1.73;;;;;;;6.69;56.52;101527.53;115802;1209;62368;-74
2021/04/22 07:17:48;;;;;;;5.07;1.47;;;;;;;6.71;56.20;101486.88;115846;1209;62576;-75
2021/04/22 07:20:21;;;;;;;4.40;1.35;;;;;;;6.78;56.55;101539.95;115757;1209;62816;-75
2021/04/22 07:22:56;;;;;;;7.97;1.97;;;;;;;6.66;56.82;101504.90;115787;1209;62166;-76
2021/04/22 07:25:25;;;;;;;10.43;1.70;;;;;;;6.65;56.90;101534.88;115788;1209;62233;-75
2021/04/22 07:27:52;;;;;;;5.40;1.77;;;;;;;6.75;56.89;101503.28;115782;1209;62387;-76
2021/04/22 07:30:20;;;;;;;5.03;1.33;;;;;;;6.84;56.82;101502.52;115788;1209;62875;-74
2021/04/22 07:32:48;;;;;;;11.80;1.90;;;;;;;6.94;56.57;101510.47;115824;1209;62097;-75
2021/04/22 07:35:15;;;;;;;11.40;2.20;;;;;;;7.03;54.74;101495.65;115854;1209;62707;-74
2021/04/22 07:37:42;;;;;;;5.07;0.97;;;;;;;7.14;55.57;101495.58;115897;1210;62164;-74
2021/04/22 07:40:11;;;;;;;9.03;1.60;;;;;;;7.13;55.30;101509.73;115836;1209;62247;-74
2021/04/22 07:42:38;;;;;;;6.70;2.20;;;;;;;7.19;54.33;101500.45;115846;1209;63048;-75
2021/04/22 07:45:07;;;;;;;6.37;2.17;;;;;;;7.29;53.95;101514.53;115819;1209;62285;-76
2021/04/22 07:47:34;;;;;;;6.40;2.45;;;;;;;7.51;53.04;101503.74;115844;1209;62296;-75
2021/04/22 07:50:01;;;;;;;14.85;2.10;;;;;;;7.64;53.88;101511.41;115780;1209;62307;-75
2021/04/22 07:52:27;;;;;;;6.30;1.40;;;;;;;7.64;54.22;101537.83;115833;1209;62448;-78
2021/04/22 07:54:54;;;;;;;5.20;1.60;;;;;;;7.54;53.53;101507.91;115826;1209;62266;-77
2021/04/22 07:57:21;;;;;;;6.00;1.80;;;;;;;7.49;53.64;101516.24;115715;1209;62455;-79
2021/04/22 07:59:47;;;;;;;4.20;1.20;;;;;;;7.49;53.52;101510.97;115810;1209;62989;-78
2021/04/22 08:02:34;;;;;;;8.73;1.67;;;;;;;7.55;53.78;101517.52;115740;1209;62526;-78
2021/04/22 08:05:03;;;;;;;8.37;2.17;;;;;;;7.70;52.86;101521.44;115773;1209;62419;-76
2021/04/22 08:07:30;;;;;;;7.55;1.70;;;;;;;7.79;53.20;101519.78;115809;1209;62975;-76
2021/04/22 08:09:57;;;;;;;7.80;2.70;;;;;;;7.97;53.29;101519.97;115839;1209;62346;-75
2021/04/22 08:12:24;;;;;;;4.70;1.80;;;;;;;7.97;50.93;101522.61;115842;1209;62278;-76
2021/04/22 08:14:52;;;;;;;6.47;1.67;;;;;;;8.04;51.98;101521.08;115854;1208;62084;-77
2021/04/22 08:17:19;;;;;;;7.07;1.60;;;;;;;8.02;51.25;101520.38;115819;1209;62457;-78
2021/04/22 08:19:46;;;;;;;16.47;2.23;;;;;;;8.00;51.90;101535.53;115857;1208;63137;-78
2021/04/22 08:22:12;;;;;;;5.93;1.73;;;;;;;8.11;52.13;101519.54;115868;1209;62359;-78
2021/04/22 08:24:39;;;;;;;7.63;1.10;;;;;;;8.24;51.28;101531.65;115795;1209;62194;-78
2021/04/22 08:27:06;;;;;;;8.13;2.00;;;;;;;8.27;51.52;101521.64;115813;1208;63323;-78
2021/04/22 08:29:33;;;;;;;4.67;1.37;;;;;;;8.33;50.63;101525.52;115885;1209;62998;-79
2021/04/22 08:31:59;;;;;;;3.07;1.27;;;;;;;8.22;50.20;101549.45;115850;1209;62292;-79
2021/04/22 08:34:27;;;;;;;8.37;1.90;;;;;;;8.24;49.56;101542.22;115842;1209;62364;-79
2021/04/22 08:36:54;;;;;;;6.97;1.87;;;;;;;8.15;49.27;101539.44;115865;1209;62280;-79
2021/04/22 08:39:20;;;;;;;6.90;1.40;;;;;;;8.19;50.13;101533.89;115838;1209;62392;-79
2021/04/22 08:41:47;;;;;;;10.43;1.27;;;;;;;8.27;48.61;101553.36;115856;1209;62221;-78
2021/04/22 08:44:14;;;;;;;4.97;1.40;;;;;;;8.48;49.79;101540.03;115876;1209;62449;-79
2021/04/22 08:46:43;;;;;;;8.63;1.27;;;;;;;8.46;47.73;101541.98;115847;1209;62374;-78
2021/04/22 08:49:12;;;;;;;3.07;1.10;;;;;;;8.47;46.66;101548.93;115661;1208;62436;-78
2021/04/22 08:51:39;;;;;;;8.17;2.00;;;;;;;8.72;47.08;101526.35;115820;1209;62696;-78
2021/04/22 08:54:06;;;;;;;8.65;1.45;;;;;;;8.83;46.91;101549.16;115770;1209;62249;-78
2021/04/22 08:56:36;;;;;;;6.10;1.57;;;;;;;8.92;47.04;101547.47;115799;1207;62940;-78
2021/04/22 08:59:05;;;;;;;9.05;1.30;;;;;;;8.89;46.39;101548.59;115811;1209;62192;-77
2021/04/22 09:01:32;;;;;;;4.50;1.20;;;;;;;8.70;46.67;101567.98;115882;1209;62420;-79
2021/04/22 09:04:05;;;;;;;7.73;2.63;;;;;;;8.52;46.67;101552.00;115832;1208;62398;-79
2021/04/22 09:06:36;;;;;;;6.10;1.10;;;;;;;8.35;45.18;101565.87;115871;1208;62283;-79
2021/04/22 09:09:06;;;;;;;7.05;1.20;;;;;;;8.38;46.54;101557.67;115878;1209;62344;-79
2021/04/22 09:11:42;;;;;;;9.30;1.80;;;;;;;8.50;46.30;101569.82;115949;1208;63073;-80
2021/04/22 09:14:15;;;;;;;7.07;2.17;;;;;;;8.76;46.23;101564.77;115921;1209;62438;-79
2021/04/22 09:16:43;;;;;;;;;;;;;;;8.86;46.88;101578.00;115960;1217;62589;-79
2021/04/22 09:19:19;;;;;;;3.07;1.10;;;;;;;8.92;46.08;101548.30;115885;1209;62325;-78
2021/04/22 09:21:55;;;;;;;6.70;1.57;;;;;;;9.00;46.31;101562.64;115872;1208;62337;-77
2021/04/22 09:24:26;;;;;;;8.53;2.33;;;;;;;8.87;44.83;101586.77;115856;1209;62166;-76
2021/04/22 09:27:04;;;;;;;9.20;1.77;;;;;;;8.88;43.55;101578.69;115841;1208;62510;-77
2021/04/22 09:29:35;;;;;;;2.77;1.20;;;;;;;9.00;44.22;101570.58;115795;1209;62637;-77
2021/04/22 09:32:21;;;;;;;4.45;1.70;;;;;;;9.03;44.39;101608.19;115885;1209;62067;-77
2021/04/22 09:35:00;;;;;;;5.40;1.53;;;;;;;8.94;45.86;101577.27;115845;1209;63623;-77
2021/04/22 09:37:46;;;;;;;10.47;1.60;;;;;;;8.84;44.81;101574.66;115811;1209;64707;-78
2021/04/22 09:40:16;;;;;;;5.70;1.35;;;;;;;9.09;46.52;101567.06;115823;1209;62371;-78
2021/04/22 09:42:42;;;;;;;6.07;1.20;;;;;;;9.32;45.63;101576.33;115897;1208;62078;-80
2021/04/22 09:45:12;;;;;;;10.83;1.40;;;;;;;9.46;44.93;101563.61;115884;1209;62524;-79
2021/04/22 09:47:38;;;;;;;5.13;1.27;;;;;;;9.43;44.13;101585.90;115856;1209;62367;-78
2021/04/22 09:50:13;;;;;;;5.63;1.40;;;;;;;9.39;44.97;101582.72;115842;1209;62696;-80
2021/04/22 09:52:48;;;;;;;;;;;;;;;9.42;44.05;101564.88;115874;1212;62436;-79
2021/04/22 09:55:18;;;;;;;13.30;1.50;;;;;;;9.52;43.79;101565.64;115904;1209;64016;-78
2021/04/22 09:57:46;;;;;;;7.60;2.30;;;;;;;9.69;44.99;101574.63;115832;1208;62404;-81
2021/04/22 10:00:25;;;;;;;9.97;1.53;;;;;;;9.61;44.35;101559.48;115889;1209;62344;-80
2021/04/22 10:02:55;;;;;;;11.27;2.50;;;;;;;9.39;42.19;101582.72;115883;1209;62271;-80
2021/04/22 10:05:30;;;;;;;7.77;1.97;;;;;;;9.31;43.79;101582.61;115904;1209;62299;-79
2021/04/22 10:08:16;;;;;;;5.33;1.15;;;;;;;9.67;42.35;101574.80;115819;1209;62172;-79
2021/04/22 10:10:58;;;;;;;3.37;1.10;;;;;;;9.79;41.46;101584.19;115891;1209;62745;-79
2021/04/22 10:13:26;;;;;;;5.50;1.70;;;;;;;9.93;43.02;101566.14;115874;1209;62451;-78
2021/04/22 10:15:55;;;;;;;7.37;2.10;;;;;;;10.00;42.68;101564.55;115786;1209;62640;-79
2021/04/22 10:18:33;;;;;;;3.90;1.37;;;;;;;9.99;43.46;101574.33;115711;1209;63253;-77
2021/04/22 10:21:00;;;;;;;11.83;1.90;;;;;;;9.93;42.53;101560.84;115642;1209;64393;-79
2021/04/22 10:23:29;;;;;;;5.67;1.80;;;;;;;10.07;43.54;101568.25;115897;1209;62165;-78
2021/04/22 10:25:57;;;;;;;12.70;2.07;;;;;;;10.03;41.82;101558.11;115829;1209;62532;-79
2021/04/22 10:28:24;;;;;;;8.13;1.47;;;;;;;10.19;41.25;101582.97;115884;1209;62208;-80
2021/04/22 10:30:55;;;;;;;8.90;2.17;;;;;;;10.21;42.09;101573.05;115939;1209;62091;-79
2021/04/22 10:33:23;;;;;;;5.00;1.40;;;;;;;10.20;41.86;101570.56;115446;1207;64387;-79
2021/04/22 10:35:50;;;;;;;3.07;1.10;;;;;;;10.39;41.96;101558.98;115849;1209;62379;-80
2021/04/22 10:38:19;;;;;;;6.15;1.80;;;;;;;10.55;40.77;101572.39;115921;1209;63210;-79
2021/04/22 10:40:48;;;;;;;6.80;1.57;;;;;;;10.33;40.97;101594.09;115915;1208;62372;-80
2021/04/22 10:43:16;;;;;;;5.17;1.23;;;;;;;10.28;40.75;101567.97;115975;1209;62215;-80
2021/04/22 10:45:45;;;;;;;2.83;1.10;;;;;;;10.20;41.97;101571.39;115915;1208;62174;-80
2021/04/22 10:48:12;;;;;;;8.43;1.53;;;;;;;10.18;42.79;101581.31;115921;1209;62577;-80
2021/04/22 10:50:43;;;;;;;4.20;1.40;;;;;;;10.33;42.28;101600.22;115900;1209;62276;-80
2021/04/22 10:53:15;;;;;;;4.97;1.83;;;;;;;10.05;42.80;101575.55;115914;1209;62273;-79
2021/04/22 10:55:44;;;;;;;7.03;1.80;;;;;;;10.09;41.62;101576.89;115830;1209;62346;-80
2021/04/22 10:58:26;;;;;;;4.27;1.67;;;;;;;10.17;39.21;101561.07;115883;1209;62253;-79
2021/04/22 11:01:03;;;;;;;8.78;2.40;;;;;;;10.31;40.15;101558.93;115834;1209;62556;-79
2021/04/22 11:03:37;;;;;;;4.45;1.45;;;;;;;10.56;40.31;101568.77;115892;1209;62404;-81
2021/04/22 11:06:12;;;;;;;8.80;2.00;;;;;;;10.80;41.17;101564.63;115920;1209;62703;-79
2021/04/22 11:08:44;;;;;;;8.40;1.85;;;;;;;10.84;40.24;101589.88;115918;1209;64275;-79
2021/04/22 11:11:30;;;;;;;4.70;1.77;;;;;;;10.94;40.12;101561.39;115891;1209;62254;-80
2021/04/22 11:14:17;;;;;;;8.70;1.50;;;;;;;11.19;40.88;101582.80;115921;1209;62722;-79
2021/04/22 11:16:49;;;;;;;5.70;1.37;;;;;;;11.15;40.41;101565.50;115930;1208;62350;-80
2021/04/22 11:19:33;;;;;;;5.27;1.40;;;;;;;11.21;39.84;101575.50;115893;1209;61991;-79
2021/04/22 11:22:06;;;;;;;4.70;1.70;;;;;;;11.40;38.65;101569.95;115887;1209;62367;-79
2021/04/22 11:25:03;;;;;;;9.40;1.60;;;;;;;11.18;38.43;101565.20;115923;1209;62545;-79
2021/04/22 11:27:43;;;;;;;7.23;1.93;;;;;;;11.16;38.85;101578.63;115937;1209;62282;-80
2021/04/22 11:30:11;;;;;;;8.90;1.20;;;;;;;11.27;39.90;101564.25;115881;1208;62270;-79
2021/04/22 11:32:42;;;;;;;5.90;1.90;;;;;;;11.28;37.71;101565.91;115901;1209;62673;-79
2021/04/22 11:35:18;;;;;;;10.47;2.20;;;;;;;11.39;38.06;101568.30;115825;1209;62207;-78